sensor_id;sensor_type;location;lat;lon;timestamp;pressure;altitude;pressure_sealevel;temperature;humidity
29941;BME280;16801;53.562;10.038;2023-06-26T00:03:05;101332.50;;;24.28;69.43
29941;BME280;16801;53.562;10.038;2023-06-26T00:06:27;101327.41;;;24.12;69.76
29941;BME280;16801;53.562;10.038;2023-06-26T00:09:48;101329.75;;;24.15;69.30
29941;BME280;16801;53.562;10.038;2023-06-26T00:13:12;101321.00;;;24.37;69.14
29941;BME280;16801;53.562;10.038;2023-06-26T00:16:34;101326.13;;;24.21;69.20
29941;BME280;16801;53.562;10.038;2023-06-26T00:19:56;101321.25;;;24.10;69.45
29941;BME280;16801;53.562;10.038;2023-06-26T00:23:18;101316.38;;;23.86;69.94
29941;BME280;16801;53.562;10.038;2023-06-26T00:26:39;101318.91;;;23.94;70.19
29941;BME280;16801;53.562;10.038;2023-06-26T00:30:00;101315.72;;;24.03;70.11
29941;BME280;16801;53.562;10.038;2023-06-26T00:33:21;101317.22;;;24.25;69.74
29941;BME280;16801;53.562;10.038;2023-06-26T00:36:42;101307.84;;;24.39;69.38
29941;BME280;16801;53.562;10.038;2023-06-26T00:40:05;101306.19;;;24.19;69.18
29941;BME280;16801;53.562;10.038;2023-06-26T00:43:26;101305.13;;;24.26;69.53
29941;BME280;16801;53.562;10.038;2023-06-26T00:46:47;101302.78;;;23.97;69.93
29941;BME280;16801;53.562;10.038;2023-06-26T00:50:08;101301.78;;;24.11;69.68
29941;BME280;16801;53.562;10.038;2023-06-26T00:53:32;101295.41;;;23.78;70.65
29941;BME280;16801;53.562;10.038;2023-06-26T00:56:54;101294.13;;;23.67;71.19
29941;BME280;16801;53.562;10.038;2023-06-26T01:00:16;101293.91;;;23.75;70.85
29941;BME280;16801;53.562;10.038;2023-06-26T01:03:37;101283.31;;;23.79;70.85
29941;BME280;16801;53.562;10.038;2023-06-26T01:07:02;101290.28;;;23.55;70.93
29941;BME280;16801;53.562;10.038;2023-06-26T01:10:23;101285.41;;;23.57;71.78
29941;BME280;16801;53.562;10.038;2023-06-26T01:13:49;101288.56;;;23.35;71.81
29941;BME280;16801;53.562;10.038;2023-06-26T01:17:12;101285.00;;;23.34;72.07
29941;BME280;16801;53.562;10.038;2023-06-26T01:20:36;101278.34;;;23.16;72.81
29941;BME280;16801;53.562;10.038;2023-06-26T01:24:02;101277.94;;;23.25;73.05
29941;BME280;16801;53.562;10.038;2023-06-26T01:27:28;101281.19;;;23.42;72.18
29941;BME280;16801;53.562;10.038;2023-06-26T01:30:53;101272.72;;;23.56;71.87
29941;BME280;16801;53.562;10.038;2023-06-26T01:34:17;101267.22;;;23.56;71.38
29941;BME280;16801;53.562;10.038;2023-06-26T01:37:38;101267.38;;;23.29;72.27
29941;BME280;16801;53.562;10.038;2023-06-26T01:41:01;101268.28;;;23.49;72.36
29941;BME280;16801;53.562;10.038;2023-06-26T01:44:26;101252.53;;;23.10;72.61
29941;BME280;16801;53.562;10.038;2023-06-26T01:47:50;101250.84;;;23.22;72.86
29941;BME280;16801;53.562;10.038;2023-06-26T01:51:14;101236.25;;;23.28;72.35
29941;BME280;16801;53.562;10.038;2023-06-26T01:54:41;101239.91;;;23.35;72.81
29941;BME280;16801;53.562;10.038;2023-06-26T01:58:03;101236.88;;;23.17;72.68
29941;BME280;16801;53.562;10.038;2023-06-26T02:01:25;101237.47;;;22.99;72.94
29941;BME280;16801;53.562;10.038;2023-06-26T02:04:47;101234.31;;;23.02;72.90
29941;BME280;16801;53.562;10.038;2023-06-26T02:08:09;101230.88;;;22.81;73.62
29941;BME280;16801;53.562;10.038;2023-06-26T02:11:29;101227.06;;;22.75;74.03
29941;BME280;16801;53.562;10.038;2023-06-26T02:14:51;101223.09;;;22.97;73.61
29941;BME280;16801;53.562;10.038;2023-06-26T02:18:18;101225.00;;;22.50;74.21
29941;BME280;16801;53.562;10.038;2023-06-26T02:21:42;101230.91;;;22.40;74.98
29941;BME280;16801;53.562;10.038;2023-06-26T02:25:04;101223.16;;;22.57;74.82
29941;BME280;16801;53.562;10.038;2023-06-26T02:28:26;101222.31;;;22.56;74.90
29941;BME280;16801;53.562;10.038;2023-06-26T02:31:47;101218.81;;;22.75;74.58
29941;BME280;16801;53.562;10.038;2023-06-26T02:35:10;101220.94;;;22.93;73.49
29941;BME280;16801;53.562;10.038;2023-06-26T02:38:35;101213.84;;;22.58;73.71
29941;BME280;16801;53.562;10.038;2023-06-26T02:41:57;101214.38;;;22.34;74.78
29941;BME280;16801;53.562;10.038;2023-06-26T02:45:19;101205.56;;;22.51;74.64
29941;BME280;16801;53.562;10.038;2023-06-26T02:48:40;101198.50;;;22.76;74.32
29941;BME280;16801;53.562;10.038;2023-06-26T02:52:03;101203.78;;;22.71;74.29
29941;BME280;16801;53.562;10.038;2023-06-26T02:55:24;101203.25;;;22.48;74.15
29941;BME280;16801;53.562;10.038;2023-06-26T02:58:46;101201.25;;;22.76;73.82
29941;BME280;16801;53.562;10.038;2023-06-26T03:02:07;101195.03;;;22.55;74.15
29941;BME280;16801;53.562;10.038;2023-06-26T03:05:35;101193.22;;;22.75;73.47
29941;BME280;16801;53.562;10.038;2023-06-26T03:08:57;101186.13;;;22.46;74.37
29941;BME280;16801;53.562;10.038;2023-06-26T03:12:18;101191.31;;;22.21;74.53
29941;BME280;16801;53.562;10.038;2023-06-26T03:15:39;101186.97;;;22.06;74.64
29941;BME280;16801;53.562;10.038;2023-06-26T03:19:00;101186.84;;;22.20;75.42
29941;BME280;16801;53.562;10.038;2023-06-26T03:22:22;101192.81;;;22.31;75.41
29941;BME280;16801;53.562;10.038;2023-06-26T03:25:44;101185.44;;;22.38;74.58
29941;BME280;16801;53.562;10.038;2023-06-26T03:29:16;101176.38;;;21.96;75.46
29941;BME280;16801;53.562;10.038;2023-06-26T03:32:37;101173.84;;;22.01;75.82
29941;BME280;16801;53.562;10.038;2023-06-26T03:35:59;101178.69;;;22.40;74.94
29941;BME280;16801;53.562;10.038;2023-06-26T03:39:20;101182.63;;;22.24;75.35
29941;BME280;16801;53.562;10.038;2023-06-26T03:42:43;101178.72;;;22.53;75.04
29941;BME280;16801;53.562;10.038;2023-06-26T03:46:04;101174.47;;;22.44;73.84
29941;BME280;16801;53.562;10.038;2023-06-26T03:49:25;101168.53;;;22.41;74.62
29941;BME280;16801;53.562;10.038;2023-06-26T03:52:46;101167.22;;;22.30;74.61
29941;BME280;16801;53.562;10.038;2023-06-26T03:56:07;101154.91;;;22.60;74.23
29941;BME280;16801;53.562;10.038;2023-06-26T03:59:29;101154.06;;;22.73;73.88
29941;BME280;16801;53.562;10.038;2023-06-26T04:02:50;101154.91;;;22.60;73.07
29941;BME280;16801;53.562;10.038;2023-06-26T04:06:11;101145.63;;;22.81;73.33
29941;BME280;16801;53.562;10.038;2023-06-26T04:09:32;101151.38;;;22.92;72.22
29941;BME280;16801;53.562;10.038;2023-06-26T04:12:53;101155.31;;;22.64;72.95
29941;BME280;16801;53.562;10.038;2023-06-26T04:16:15;101144.31;;;22.64;73.43
29941;BME280;16801;53.562;10.038;2023-06-26T04:19:36;101141.00;;;23.14;72.62
29941;BME280;16801;53.562;10.038;2023-06-26T04:22:57;101129.03;;;22.48;73.33
29941;BME280;16801;53.562;10.038;2023-06-26T04:26:18;101130.00;;;22.88;72.90
29941;BME280;16801;53.562;10.038;2023-06-26T04:29:39;101123.41;;;23.28;72.65
29941;BME280;16801;53.562;10.038;2023-06-26T04:33:02;101123.84;;;22.99;72.52
29941;BME280;16801;53.562;10.038;2023-06-26T04:36:23;101123.69;;;23.33;71.84
29941;BME280;16801;53.562;10.038;2023-06-26T04:39:48;101121.97;;;23.39;71.27
29941;BME280;16801;53.562;10.038;2023-06-26T04:43:09;101121.13;;;23.12;72.07
29941;BME280;16801;53.562;10.038;2023-06-26T04:46:29;101112.03;;;22.92;72.18
29941;BME280;16801;53.562;10.038;2023-06-26T04:49:51;101109.06;;;23.46;71.60
29941;BME280;16801;53.562;10.038;2023-06-26T04:53:12;101102.66;;;23.65;71.08
29941;BME280;16801;53.562;10.038;2023-06-26T04:56:35;101106.69;;;23.69;70.22
29941;BME280;16801;53.562;10.038;2023-06-26T04:59:56;101106.03;;;23.67;70.49
29941;BME280;16801;53.562;10.038;2023-06-26T05:03:25;101096.78;;;23.42;71.06
29941;BME280;16801;53.562;10.038;2023-06-26T05:06:47;101100.16;;;23.37;71.24
29941;BME280;16801;53.562;10.038;2023-06-26T05:10:09;101099.53;;;23.42;70.74
29941;BME280;16801;53.562;10.038;2023-06-26T05:13:30;101097.59;;;23.55;70.66
29941;BME280;16801;53.562;10.038;2023-06-26T05:16:51;101097.97;;;23.72;69.90
29941;BME280;16801;53.562;10.038;2023-06-26T05:20:12;101093.19;;;23.15;70.22
29941;BME280;16801;53.562;10.038;2023-06-26T05:23:34;101077.09;;;22.99;70.84
29941;BME280;16801;53.562;10.038;2023-06-26T05:26:56;101074.97;;;23.14;70.50
29941;BME280;16801;53.562;10.038;2023-06-26T05:30:18;101071.16;;;23.41;70.05
29941;BME280;16801;53.562;10.038;2023-06-26T05:33:43;101067.97;;;23.25;70.41
29941;BME280;16801;53.562;10.038;2023-06-26T05:37:06;101062.72;;;23.36;70.45
29941;BME280;16801;53.562;10.038;2023-06-26T05:40:29;101069.91;;;23.04;70.97
29941;BME280;16801;53.562;10.038;2023-06-26T05:43:50;101058.47;;;23.40;70.69
29941;BME280;16801;53.562;10.038;2023-06-26T05:47:14;101052.47;;;23.69;69.95
29941;BME280;16801;53.562;10.038;2023-06-26T05:50:36;101055.03;;;23.58;69.89
29941;BME280;16801;53.562;10.038;2023-06-26T05:53:57;101048.75;;;23.89;69.33
29941;BME280;16801;53.562;10.038;2023-06-26T05:57:19;101047.47;;;23.91;68.44
29941;BME280;16801;53.562;10.038;2023-06-26T06:00:41;101044.19;;;24.20;68.55
29941;BME280;16801;53.562;10.038;2023-06-26T06:04:01;101042.25;;;24.58;67.44
29941;BME280;16801;53.562;10.038;2023-06-26T06:07:22;101042.13;;;24.78;66.62
29941;BME280;16801;53.562;10.038;2023-06-26T06:10:43;101036.03;;;24.38;67.49
29941;BME280;16801;53.562;10.038;2023-06-26T06:14:05;101036.53;;;24.85;66.26
29941;BME280;16801;53.562;10.038;2023-06-26T06:17:26;101034.19;;;24.88;65.99
29941;BME280;16801;53.562;10.038;2023-06-26T06:20:48;101036.28;;;24.93;65.67
29941;BME280;16801;53.562;10.038;2023-06-26T06:24:09;101030.94;;;25.16;65.49
29941;BME280;16801;53.562;10.038;2023-06-26T06:27:30;101026.38;;;25.03;65.15
29941;BME280;16801;53.562;10.038;2023-06-26T06:30:52;101026.72;;;24.89;65.50
29941;BME280;16801;53.562;10.038;2023-06-26T06:34:13;101023.88;;;24.77;65.81
29941;BME280;16801;53.562;10.038;2023-06-26T06:37:34;101020.09;;;24.72;66.11
29941;BME280;16801;53.562;10.038;2023-06-26T06:40:55;101023.25;;;25.00;65.87
29941;BME280;16801;53.562;10.038;2023-06-26T06:44:16;101022.06;;;24.89;66.15
29941;BME280;16801;53.562;10.038;2023-06-26T06:47:38;101008.06;;;25.52;65.06
29941;BME280;16801;53.562;10.038;2023-06-26T06:50:59;100995.59;;;25.79;64.73
29941;BME280;16801;53.562;10.038;2023-06-26T06:54:20;100994.41;;;25.38;64.66
29941;BME280;16801;53.562;10.038;2023-06-26T06:57:41;100988.53;;;25.53;64.71
29941;BME280;16801;53.562;10.038;2023-06-26T07:01:02;100981.78;;;25.79;64.14
29941;BME280;16801;53.562;10.038;2023-06-26T07:04:25;100972.63;;;25.96;63.89
29941;BME280;16801;53.562;10.038;2023-06-26T07:07:47;100981.00;;;25.90;63.81
29941;BME280;16801;53.562;10.038;2023-06-26T07:11:07;100980.13;;;25.60;63.94
29941;BME280;16801;53.562;10.038;2023-06-26T07:14:28;100983.81;;;25.54;64.89
29941;BME280;16801;53.562;10.038;2023-06-26T07:17:49;100982.59;;;25.97;63.87
29941;BME280;16801;53.562;10.038;2023-06-26T07:21:11;100975.81;;;25.82;64.43
29941;BME280;16801;53.562;10.038;2023-06-26T07:24:32;100973.59;;;25.72;64.09
29941;BME280;16801;53.562;10.038;2023-06-26T07:27:53;100972.44;;;25.80;64.26
29941;BME280;16801;53.562;10.038;2023-06-26T07:31:13;100976.22;;;25.67;64.17
29941;BME280;16801;53.562;10.038;2023-06-26T07:34:36;100977.47;;;26.01;63.44
29941;BME280;16801;53.562;10.038;2023-06-26T07:37:58;100975.31;;;26.03;63.38
29941;BME280;16801;53.562;10.038;2023-06-26T07:41:19;100977.19;;;26.21;62.88
29941;BME280;16801;53.562;10.038;2023-06-26T07:44:41;100958.75;;;26.56;62.20
29941;BME280;16801;53.562;10.038;2023-06-26T07:48:02;100967.00;;;26.97;61.96
29941;BME280;16801;53.562;10.038;2023-06-26T07:51:23;100961.34;;;26.92;61.97
29941;BME280;16801;53.562;10.038;2023-06-26T07:54:46;100971.53;;;27.15;60.94
29941;BME280;16801;53.562;10.038;2023-06-26T07:58:07;100970.00;;;27.07;61.85
29941;BME280;16801;53.562;10.038;2023-06-26T08:01:28;100960.84;;;26.72;61.77
29941;BME280;16801;53.562;10.038;2023-06-26T08:04:48;100960.97;;;27.35;61.50
29941;BME280;16801;53.562;10.038;2023-06-26T08:08:10;100955.28;;;27.30;61.19
29941;BME280;16801;53.562;10.038;2023-06-26T08:11:32;100946.72;;;27.83;60.41
29941;BME280;16801;53.562;10.038;2023-06-26T08:14:53;100937.56;;;27.31;59.88
29941;BME280;16801;53.562;10.038;2023-06-26T08:18:13;100939.44;;;27.65;59.61
29941;BME280;16801;53.562;10.038;2023-06-26T08:21:34;100924.28;;;27.84;58.58
29941;BME280;16801;53.562;10.038;2023-06-26T08:24:55;100919.16;;;27.76;58.81
29941;BME280;16801;53.562;10.038;2023-06-26T08:28:17;100915.13;;;27.84;58.45
29941;BME280;16801;53.562;10.038;2023-06-26T08:31:39;100916.28;;;27.71;58.76
29941;BME280;16801;53.562;10.038;2023-06-26T08:35:00;100910.09;;;28.09;58.61
29941;BME280;16801;53.562;10.038;2023-06-26T08:38:21;100919.78;;;28.39;56.86
29941;BME280;16801;53.562;10.038;2023-06-26T08:41:42;100927.75;;;28.19;56.93
29941;BME280;16801;53.562;10.038;2023-06-26T08:45:05;100921.72;;;28.56;56.03
29941;BME280;16801;53.562;10.038;2023-06-26T08:48:28;100925.50;;;28.50;55.21
29941;BME280;16801;53.562;10.038;2023-06-26T08:51:52;100937.97;;;28.02;56.26
29941;BME280;16801;53.562;10.038;2023-06-26T08:55:15;100953.00;;;28.06;55.66
29941;BME280;16801;53.562;10.038;2023-06-26T08:58:37;100968.19;;;27.76;55.38
29941;BME280;16801;53.562;10.038;2023-06-26T09:02:00;100969.50;;;27.85;55.51
29941;BME280;16801;53.562;10.038;2023-06-26T09:05:22;100974.13;;;28.07;55.82
29941;BME280;16801;53.562;10.038;2023-06-26T09:08:43;100976.53;;;28.32;55.89
29941;BME280;16801;53.562;10.038;2023-06-26T09:12:05;100982.50;;;28.40;56.04
29941;BME280;16801;53.562;10.038;2023-06-26T09:15:26;101003.09;;;28.44;56.00
29941;BME280;16801;53.562;10.038;2023-06-26T09:18:51;100999.63;;;28.37;57.04
29941;BME280;16801;53.562;10.038;2023-06-26T09:22:13;101005.09;;;28.32;56.52
29941;BME280;16801;53.562;10.038;2023-06-26T09:25:38;101013.50;;;28.66;56.94
29941;BME280;16801;53.562;10.038;2023-06-26T09:29:00;101018.63;;;29.07;55.67
29941;BME280;16801;53.562;10.038;2023-06-26T09:32:23;101031.25;;;28.81;55.84
29941;BME280;16801;53.562;10.038;2023-06-26T09:35:46;101023.16;;;28.63;56.72
29941;BME280;16801;53.562;10.038;2023-06-26T09:39:08;101029.84;;;28.06;58.11
29941;BME280;16801;53.562;10.038;2023-06-26T09:42:31;101021.16;;;28.30;58.02
29941;BME280;16801;53.562;10.038;2023-06-26T09:45:51;101025.00;;;27.90;58.90
29941;BME280;16801;53.562;10.038;2023-06-26T09:49:14;101034.75;;;27.64;59.20
29941;BME280;16801;53.562;10.038;2023-06-26T09:52:40;101048.34;;;27.31;59.86
29941;BME280;16801;53.562;10.038;2023-06-26T09:56:05;101045.34;;;27.21;60.43
29941;BME280;16801;53.562;10.038;2023-06-26T09:59:26;101050.16;;;26.90;61.33
29941;BME280;16801;53.562;10.038;2023-06-26T10:02:47;101051.69;;;26.45;63.23
29941;BME280;16801;53.562;10.038;2023-06-26T10:06:09;101077.75;;;26.38;64.10
29941;BME280;16801;53.562;10.038;2023-06-26T10:09:35;101059.69;;;26.05;65.91
29941;BME280;16801;53.562;10.038;2023-06-26T10:13:00;101078.09;;;25.93;66.29
29941;BME280;16801;53.562;10.038;2023-06-26T10:16:25;101089.72;;;25.84;67.20
29941;BME280;16801;53.562;10.038;2023-06-26T10:19:48;101086.19;;;25.34;68.58
29941;BME280;16801;53.562;10.038;2023-06-26T10:23:11;101113.91;;;25.21;70.51
29941;BME280;16801;53.562;10.038;2023-06-26T10:26:35;101144.22;;;24.65;73.19
29941;BME280;16801;53.562;10.038;2023-06-26T10:30:00;101141.75;;;24.00;76.55
29941;BME280;16801;53.562;10.038;2023-06-26T10:33:22;101161.75;;;23.30;79.34
29941;BME280;16801;53.562;10.038;2023-06-26T10:36:44;101159.84;;;23.17;82.12
29941;BME280;16801;53.562;10.038;2023-06-26T10:40:08;101170.00;;;23.10;83.33
29941;BME280;16801;53.562;10.038;2023-06-26T10:43:30;101147.38;;;23.41;84.57
29941;BME280;16801;53.562;10.038;2023-06-26T10:46:53;101168.31;;;23.22;85.50
29941;BME280;16801;53.562;10.038;2023-06-26T10:50:19;101171.69;;;23.24;85.38
29941;BME280;16801;53.562;10.038;2023-06-26T10:53:40;101172.31;;;23.00;85.63
29941;BME280;16801;53.562;10.038;2023-06-26T10:57:04;101176.34;;;23.17;85.86
29941;BME280;16801;53.562;10.038;2023-06-26T11:00:29;101182.91;;;23.16;85.40
29941;BME280;16801;53.562;10.038;2023-06-26T11:04:01;101179.28;;;23.88;83.95
29941;BME280;16801;53.562;10.038;2023-06-26T11:07:23;101188.13;;;24.67;82.23
29941;BME280;16801;53.562;10.038;2023-06-26T11:10:48;101194.22;;;25.13;80.43
29941;BME280;16801;53.562;10.038;2023-06-26T11:14:10;101191.25;;;25.39;78.17
29941;BME280;16801;53.562;10.038;2023-06-26T11:17:34;101201.22;;;25.15;77.67
29941;BME280;16801;53.562;10.038;2023-06-26T11:21:04;101204.09;;;25.27;76.86
29941;BME280;16801;53.562;10.038;2023-06-26T11:24:25;101213.47;;;24.95;76.04
29941;BME280;16801;53.562;10.038;2023-06-26T11:27:46;101215.81;;;25.78;74.01
29941;BME280;16801;53.562;10.038;2023-06-26T11:31:07;101215.44;;;25.68;72.00
29941;BME280;16801;53.562;10.038;2023-06-26T11:34:33;101222.38;;;26.56;70.32
29941;BME280;16801;53.562;10.038;2023-06-26T11:37:55;101223.53;;;26.12;69.57
29941;BME280;16801;53.562;10.038;2023-06-26T11:41:17;101219.47;;;24.79;69.52
29941;BME280;16801;53.562;10.038;2023-06-26T11:44:41;101231.16;;;24.23;71.52
29941;BME280;16801;53.562;10.038;2023-06-26T11:48:03;101238.31;;;25.26;69.61
29941;BME280;16801;53.562;10.038;2023-06-26T11:51:26;101258.00;;;26.10;67.12
29941;BME280;16801;53.562;10.038;2023-06-26T11:54:47;101247.34;;;25.89;66.10
29941;BME280;16801;53.562;10.038;2023-06-26T11:58:08;101255.94;;;25.25;66.42
29941;BME280;16801;53.562;10.038;2023-06-26T12:01:31;101257.81;;;24.42;67.00
29941;BME280;16801;53.562;10.038;2023-06-26T12:04:53;101263.34;;;25.24;67.25
29941;BME280;16801;53.562;10.038;2023-06-26T12:08:15;101270.28;;;25.02;65.41
29941;BME280;16801;53.562;10.038;2023-06-26T12:11:38;101260.22;;;24.77;65.60
29941;BME280;16801;53.562;10.038;2023-06-26T12:15:00;101270.44;;;25.14;64.96
29941;BME280;16801;53.562;10.038;2023-06-26T12:18:22;101274.59;;;25.61;64.74
29941;BME280;16801;53.562;10.038;2023-06-26T12:21:48;101272.72;;;26.04;63.91
29941;BME280;16801;53.562;10.038;2023-06-26T12:25:13;101268.78;;;25.37;65.06
29941;BME280;16801;53.562;10.038;2023-06-26T12:28:35;101265.94;;;25.57;65.03
29941;BME280;16801;53.562;10.038;2023-06-26T12:31:57;101286.69;;;26.34;62.34
29941;BME280;16801;53.562;10.038;2023-06-26T12:35:18;101287.56;;;25.60;62.23
29941;BME280;16801;53.562;10.038;2023-06-26T12:38:40;101292.03;;;25.86;61.09
29941;BME280;16801;53.562;10.038;2023-06-26T12:42:06;101286.00;;;26.20;60.87
29941;BME280;16801;53.562;10.038;2023-06-26T12:45:27;101274.78;;;25.66;60.69
29941;BME280;16801;53.562;10.038;2023-06-26T12:48:49;101290.16;;;26.83;59.79
29941;BME280;16801;53.562;10.038;2023-06-26T12:52:12;101287.47;;;26.41;58.12
29941;BME280;16801;53.562;10.038;2023-06-26T12:55:33;101294.69;;;25.99;55.84
29941;BME280;16801;53.562;10.038;2023-06-26T12:58:55;101306.06;;;26.34;53.67
29941;BME280;16801;53.562;10.038;2023-06-26T13:02:21;101301.56;;;26.33;53.17
29941;BME280;16801;53.562;10.038;2023-06-26T13:05:43;101300.63;;;26.81;53.37
29941;BME280;16801;53.562;10.038;2023-06-26T13:09:04;101307.22;;;26.26;52.78
29941;BME280;16801;53.562;10.038;2023-06-26T13:12:24;101313.13;;;26.48;53.31
29941;BME280;16801;53.562;10.038;2023-06-26T13:15:47;101314.78;;;26.73;52.17
29941;BME280;16801;53.562;10.038;2023-06-26T13:19:07;101311.44;;;26.65;52.49
29941;BME280;16801;53.562;10.038;2023-06-26T13:22:28;101313.97;;;27.03;51.90
29941;BME280;16801;53.562;10.038;2023-06-26T13:25:49;101299.28;;;27.20;51.71
29941;BME280;16801;53.562;10.038;2023-06-26T13:29:11;101287.78;;;27.17;51.50
29941;BME280;16801;53.562;10.038;2023-06-26T13:32:33;101292.25;;;27.36;50.64
29941;BME280;16801;53.562;10.038;2023-06-26T13:35:54;101300.75;;;26.68;50.99
29941;BME280;16801;53.562;10.038;2023-06-26T13:39:15;101302.53;;;26.63;50.87
29941;BME280;16801;53.562;10.038;2023-06-26T13:42:36;101303.03;;;26.17;51.53
29941;BME280;16801;53.562;10.038;2023-06-26T13:45:58;101322.66;;;26.34;52.46
29941;BME280;16801;53.562;10.038;2023-06-26T13:49:20;101316.03;;;26.71;50.23
29941;BME280;16801;53.562;10.038;2023-06-26T13:52:41;101311.66;;;27.18;50.03
29941;BME280;16801;53.562;10.038;2023-06-26T13:56:02;101315.81;;;26.36;51.17
29941;BME280;16801;53.562;10.038;2023-06-26T13:59:23;101311.50;;;26.58;51.20
29941;BME280;16801;53.562;10.038;2023-06-26T14:02:46;101320.22;;;25.70;52.36
29941;BME280;16801;53.562;10.038;2023-06-26T14:06:08;101320.84;;;25.72;52.75
29941;BME280;16801;53.562;10.038;2023-06-26T14:09:29;101320.38;;;27.03;50.42
29941;BME280;16801;53.562;10.038;2023-06-26T14:12:51;101309.16;;;25.94;51.90
29941;BME280;16801;53.562;10.038;2023-06-26T14:16:11;101319.25;;;27.22;50.79
29941;BME280;16801;53.562;10.038;2023-06-26T14:19:32;101332.06;;;26.87;50.70
29941;BME280;16801;53.562;10.038;2023-06-26T14:22:55;101309.78;;;25.72;51.96
29941;BME280;16801;53.562;10.038;2023-06-26T14:26:16;101321.81;;;25.53;52.16
29941;BME280;16801;53.562;10.038;2023-06-26T14:29:37;101311.63;;;26.09;51.60
29941;BME280;16801;53.562;10.038;2023-06-26T14:32:58;101334.06;;;26.19;51.02
29941;BME280;16801;53.562;10.038;2023-06-26T14:36:19;101335.84;;;26.32;50.65
29941;BME280;16801;53.562;10.038;2023-06-26T14:39:41;101332.41;;;26.54;49.83
29941;BME280;16801;53.562;10.038;2023-06-26T14:43:02;101332.28;;;26.49;50.32
29941;BME280;16801;53.562;10.038;2023-06-26T14:46:23;101347.16;;;27.21;49.52
29941;BME280;16801;53.562;10.038;2023-06-26T14:49:44;101339.84;;;26.97;50.13
29941;BME280;16801;53.562;10.038;2023-06-26T14:53:05;101343.28;;;26.92;48.52
29941;BME280;16801;53.562;10.038;2023-06-26T14:56:27;101345.31;;;26.42;48.07
29941;BME280;16801;53.562;10.038;2023-06-26T14:59:51;101333.25;;;26.37;48.38
29941;BME280;16801;53.562;10.038;2023-06-26T15:03:12;101338.34;;;26.15;48.70
29941;BME280;16801;53.562;10.038;2023-06-26T15:06:33;101345.13;;;25.63;49.42
29941;BME280;16801;53.562;10.038;2023-06-26T15:09:55;101351.91;;;25.23;49.87
29941;BME280;16801;53.562;10.038;2023-06-26T15:13:17;101346.09;;;25.44;50.71
29941;BME280;16801;53.562;10.038;2023-06-26T15:16:38;101358.16;;;26.37;49.38
29941;BME280;16801;53.562;10.038;2023-06-26T15:19:58;101362.00;;;26.04;50.37
29941;BME280;16801;53.562;10.038;2023-06-26T15:23:20;101363.72;;;25.74;51.04
29941;BME280;16801;53.562;10.038;2023-06-26T15:26:40;101356.13;;;24.68;52.82
29941;BME280;16801;53.562;10.038;2023-06-26T15:30:04;101346.72;;;25.02;52.90
29941;BME280;16801;53.562;10.038;2023-06-26T15:33:25;101349.03;;;25.11;52.21
29941;BME280;16801;53.562;10.038;2023-06-26T15:36:46;101357.72;;;25.08;51.79
29941;BME280;16801;53.562;10.038;2023-06-26T15:40:08;101355.13;;;25.20;50.56
29941;BME280;16801;53.562;10.038;2023-06-26T15:43:31;101355.69;;;25.28;50.40
29941;BME280;16801;53.562;10.038;2023-06-26T15:46:53;101356.72;;;24.96;49.68
29941;BME280;16801;53.562;10.038;2023-06-26T15:50:17;101366.31;;;25.31;49.58
29941;BME280;16801;53.562;10.038;2023-06-26T15:53:41;101357.47;;;25.16;48.09
29941;BME280;16801;53.562;10.038;2023-06-26T15:57:02;101354.06;;;24.64;49.37
29941;BME280;16801;53.562;10.038;2023-06-26T16:00:23;101365.50;;;24.60;50.52
29941;BME280;16801;53.562;10.038;2023-06-26T16:03:46;101363.84;;;24.40;51.28
29941;BME280;16801;53.562;10.038;2023-06-26T16:07:07;101363.84;;;24.14;52.47
29941;BME280;16801;53.562;10.038;2023-06-26T16:10:28;101362.59;;;24.10;53.21
29941;BME280;16801;53.562;10.038;2023-06-26T16:13:49;101372.56;;;24.24;53.64
29941;BME280;16801;53.562;10.038;2023-06-26T16:17:14;101362.91;;;24.79;53.80
29941;BME280;16801;53.562;10.038;2023-06-26T16:20:38;101366.53;;;24.86;52.37
29941;BME280;16801;53.562;10.038;2023-06-26T16:23:59;101367.84;;;24.50;52.81
29941;BME280;16801;53.562;10.038;2023-06-26T16:27:20;101369.72;;;25.27;53.63
29941;BME280;16801;53.562;10.038;2023-06-26T16:30:41;101378.47;;;24.08;53.64
29941;BME280;16801;53.562;10.038;2023-06-26T16:34:02;101380.56;;;23.73;55.11
29941;BME280;16801;53.562;10.038;2023-06-26T16:37:24;101378.25;;;24.22;55.05
29941;BME280;16801;53.562;10.038;2023-06-26T16:40:45;101385.47;;;24.04;55.43
29941;BME280;16801;53.562;10.038;2023-06-26T16:44:05;101386.69;;;23.75;55.92
29941;BME280;16801;53.562;10.038;2023-06-26T16:47:26;101398.56;;;23.75;55.42
29941;BME280;16801;53.562;10.038;2023-06-26T16:50:49;101391.34;;;23.68;55.76
29941;BME280;16801;53.562;10.038;2023-06-26T16:54:12;101400.06;;;23.98;56.43
29941;BME280;16801;53.562;10.038;2023-06-26T16:57:32;101406.06;;;24.34;56.33
29941;BME280;16801;53.562;10.038;2023-06-26T17:00:54;101405.78;;;24.61;56.44
29941;BME280;16801;53.562;10.038;2023-06-26T17:04:15;101409.84;;;24.33;56.26
29941;BME280;16801;53.562;10.038;2023-06-26T17:07:37;101412.00;;;24.05;56.42
29941;BME280;16801;53.562;10.038;2023-06-26T17:11:00;101405.59;;;23.98;56.23
29941;BME280;16801;53.562;10.038;2023-06-26T17:14:20;101407.47;;;23.71;56.17
29941;BME280;16801;53.562;10.038;2023-06-26T17:17:42;101408.38;;;24.50;55.48
29941;BME280;16801;53.562;10.038;2023-06-26T17:21:03;101417.69;;;24.16;56.02
29941;BME280;16801;53.562;10.038;2023-06-26T17:24:26;101416.09;;;23.48;57.45